Terminal Aerodrome Forecast
Issued by NWS Sioux Falls, SD

Home | Current Version | Previous Version | Graphics & Text | Print | Product List | Glossary On
Versions: 1 2 3 4 5 6 7 8 9 10 11 12 13 14 15 16 17 18 19 20 21 22 23 24 25 26 27 28 29 30 31 32 33 34 35 36
000
FTUS43 KFSD 232320
TAFSUX
TAF
KSUX 232320Z 2400/2424 04019G27KT 2SM RASN OVC015
     FM240200 02020G28KT 1/2SM SN BLSN OVC008
     FM241500 35022G34KT 1 1/2SM -SN BLSN OVC015
     FM241900 35020G32KT 3SM BLSN OVC020
     FM242100 34020G29KT P6SM BKN030=

USA.gov is the U.S. government's official web portal to all federal, state and local government web resources and services.